Terminal Aerodrome Forecast
Issued by NWS Topeka, KS

Home | Current Version | Previous Version | Graphics & Text | Print | Product List | Glossary On
Versions: 1 2 3 4 5 6 7 8 9 10 11 12 13 14 15 16 17 18
000
FTUS43 KTOP 281500 AAA
TAFTOP
TAF AMD
KTOP 281507Z 2815/2912 17008KT P6SM SCT150
     FM290000 17006KT P6SM VCTS BKN060CB
     FM290600 18006KT P6SM VCTS BKN050CB
      TEMPO 2908/2912 4SM -TSRA OVC040CB=

USA.gov is the U.S. government's official web portal to all federal, state and local government web resources and services.